Time;durP1;ratioP1;P1;durP2;ratioP2;P2;SDS_P1;SDS_P2;PMS_P1;PMS_P2;Temp;Humidity;BMP_temperature;BMP_pressure;BME280_temperature;BME280_humidity;BME280_pressure;Samples;Min_cycle;Max_cycle;Signal;HPM_P1;HPM_P2
2024/03/07 00:01:09;;;;;;;26.30;12.50;;;;;;;13.65;41.72;102205.41;4918228;29;20036;-63
2024/03/07 00:03:35;;;;;;;34.03;14.52;;;;;;;13.60;42.49;102197.63;4917069;29;20032;-63
2024/03/07 00:06:00;;;;;;;36.00;15.00;;;;;;;13.54;41.80;102198.09;4919522;29;20060;-63
2024/03/07 00:08:26;;;;;;;34.65;15.50;;;;;;;13.52;41.52;102207.25;4919983;29;20032;-63
2024/03/07 00:10:51;;;;;;;29.08;12.52;;;;;;;13.46;41.72;102205.03;4916829;29;20036;-63
2024/03/07 00:13:17;;;;;;;32.67;14.40;;;;;;;13.42;41.40;102207.09;4917147;29;20039;-64
2024/03/07 00:15:42;;;;;;;31.45;12.35;;;;;;;13.38;42.70;102209.16;4915879;29;20036;-64
2024/03/07 00:18:08;;;;;;;30.35;12.68;;;;;;;13.33;42.39;102208.63;4917553;29;20054;-65
2024/03/07 00:20:33;;;;;;;41.20;13.80;;;;;;;13.29;42.43;102204.44;4916745;29;20087;-64
2024/03/07 00:22:58;;;;;;;31.52;13.18;;;;;;;13.25;42.58;102208.34;4916589;29;20456;-64
2024/03/07 00:25:24;;;;;;;33.08;13.30;;;;;;;13.21;42.50;102206.84;4915808;29;20072;-64
2024/03/07 00:27:52;;;;;;;25.33;12.00;;;;;;;13.15;42.89;102201.91;4916030;29;20032;-65
2024/03/07 00:30:18;;;;;;;27.48;12.45;;;;;;;13.10;42.78;102203.22;4919152;29;20067;-65
2024/03/07 00:32:44;;;;;;;28.15;11.90;;;;;;;13.05;42.31;102195.44;4934644;29;20055;-65
2024/03/07 00:35:10;;;;;;;22.50;10.95;;;;;;;13.02;41.48;102206.44;4935813;29;20475;-65
2024/03/07 00:37:36;;;;;;;24.45;10.48;;;;;;;12.95;42.41;102194.41;4935828;29;20135;-65
2024/03/07 00:40:02;;;;;;;25.83;11.70;;;;;;;12.91;42.71;102202.78;4934693;29;20042;-65
2024/03/07 00:42:28;;;;;;;23.35;10.90;;;;;;;12.86;42.70;102195.06;4934746;29;20076;-65
2024/03/07 00:44:54;;;;;;;27.05;10.55;;;;;;;12.81;42.01;102202.63;4935808;29;20064;-64
2024/03/07 00:47:19;;;;;;;27.67;13.07;;;;;;;12.78;42.27;102198.31;4918764;29;20162;-64
2024/03/07 00:49:48;;;;;;;31.63;13.52;;;;;;;12.75;42.26;102197.66;4936109;29;20036;-65
2024/03/07 00:52:14;;;;;;;33.95;12.50;;;;;;;12.72;42.43;102189.81;4918926;29;20069;-65
2024/03/07 00:54:39;;;;;;;28.67;12.80;;;;;;;12.70;41.99;102199.84;4934499;29;20036;-65
2024/03/07 00:57:05;;;;;;;30.10;12.57;;;;;;;12.67;41.68;102195.50;4934431;29;20562;-65
2024/03/07 00:59:30;;;;;;;36.45;13.48;;;;;;;12.62;42.41;102192.28;4935638;29;20052;-64
2024/03/07 01:01:56;;;;;;;32.28;13.45;;;;;;;12.61;42.85;102195.09;4935579;29;20036;-65
2024/03/07 01:04:22;;;;;;;27.70;12.15;;;;;;;12.58;42.25;102193.50;4909392;29;20045;-65
2024/03/07 01:06:47;;;;;;;26.40;12.25;;;;;;;12.55;41.70;102188.34;4899672;29;20040;-64
2024/03/07 01:09:16;;;;;;;33.20;15.07;;;;;;;12.51;42.42;102183.25;4931274;29;20110;-66
2024/03/07 01:11:45;;;;;;;33.30;13.98;;;;;;;12.49;42.73;102185.22;4934362;29;20051;-65
2024/03/07 01:14:10;;;;;;;31.10;13.73;;;;;;;12.48;42.62;102183.50;4935580;29;20408;-65
2024/03/07 01:16:36;;;;;;;38.53;14.82;;;;;;;12.46;42.52;102177.34;4934278;29;20035;-65
2024/03/07 01:19:01;;;;;;;26.83;12.23;;;;;;;12.46;42.50;102182.72;4934306;29;20031;-65
2024/03/07 01:21:27;;;;;;;23.70;11.18;;;;;;;12.41;42.07;102176.81;4935140;29;20086;-63
2024/03/07 01:23:52;;;;;;;25.73;10.30;;;;;;;12.36;43.01;102173.59;4922015;29;20067;-63
2024/03/07 01:26:17;;;;;;;21.33;9.23;;;;;;;12.31;42.57;102183.81;4938076;29;20032;-63
2024/03/07 01:28:43;;;;;;;27.73;10.18;;;;;;;12.24;41.92;102176.19;4939205;29;20038;-63
2024/03/07 01:31:10;;;;;;;25.33;9.88;;;;;;;12.16;42.79;102162.44;4937885;29;20036;-63
2024/03/07 01:33:35;;;;;;;18.63;9.50;;;;;;;12.16;42.30;102166.94;4938864;29;20543;-63
2024/03/07 01:36:01;;;;;;;26.50;10.90;;;;;;;12.13;41.76;102165.31;4937655;29;20148;-63
2024/03/07 01:38:26;;;;;;;22.67;10.57;;;;;;;12.11;42.56;102169.09;4922163;29;20412;-63
2024/03/07 01:40:51;;;;;;;20.00;9.43;;;;;;;12.06;42.38;102165.88;4938857;29;20435;-63
2024/03/07 01:43:17;;;;;;;22.52;10.55;;;;;;;12.05;42.43;102162.31;4938794;29;20034;-63
2024/03/07 01:45:42;;;;;;;26.55;11.25;;;;;;;12.03;42.54;102153.47;4937607;29;20031;-63
2024/03/07 01:48:11;;;;;;;31.15;11.98;;;;;;;12.01;42.69;102158.09;4937849;29;20031;-63
2024/03/07 01:50:39;;;;;;;27.85;11.70;;;;;;;11.98;42.76;102158.31;4937588;29;20034;-63
2024/03/07 01:53:09;;;;;;;33.35;13.52;;;;;;;11.96;42.38;102154.88;4937590;29;20107;-64
2024/03/07 01:55:35;;;;;;;31.45;12.50;;;;;;;11.98;41.95;102165.50;4937365;29;20487;-63
2024/03/07 01:58:02;;;;;;;28.73;12.48;;;;;;;11.93;42.27;102155.09;4937438;29;20055;-63
2024/03/07 02:00:28;;;;;;;31.30;12.75;;;;;;;11.94;42.84;102158.66;4937532;29;20480;-65
2024/03/07 02:02:53;;;;;;;28.95;13.13;;;;;;;11.93;42.91;102152.41;4937444;29;20067;-64
2024/03/07 02:05:20;;;;;;;25.75;11.52;;;;;;;11.91;43.36;102146.28;4937470;29;20044;-64
2024/03/07 02:07:45;;;;;;;23.20;9.57;;;;;;;11.90;43.35;102160.66;4937478;29;20063;-64
2024/03/07 02:10:10;;;;;;;24.88;9.35;;;;;;;11.88;42.17;102157.25;4937427;29;20074;-63
2024/03/07 02:12:36;;;;;;;12.38;7.25;;;;;;;11.83;42.08;102151.34;4921357;29;20040;-63
2024/03/07 02:15:02;;;;;;;14.73;7.28;;;;;;;11.79;42.48;102143.56;4937210;29;20522;-63
2024/03/07 02:17:28;;;;;;;12.50;6.25;;;;;;;11.75;42.71;102150.13;4938636;29;20027;-63
2024/03/07 02:19:53;;;;;;;18.42;8.77;;;;;;;11.71;42.32;102143.25;4938231;29;20070;-63
2024/03/07 02:22:19;;;;;;;19.67;8.93;;;;;;;11.69;42.63;102135.31;4921018;29;20042;-63
2024/03/07 02:24:45;;;;;;;22.05;9.48;;;;;;;11.66;42.52;102136.34;4938014;29;20427;-63
2024/03/07 02:27:11;;;;;;;19.55;8.98;;;;;;;11.66;42.73;102136.34;4937260;29;20036;-63
2024/03/07 02:29:36;;;;;;;26.33;11.25;;;;;;;11.65;43.12;102139.97;4938330;28;20090;-63
2024/03/07 02:32:02;;;;;;;22.55;9.68;;;;;;;11.58;43.20;102132.47;4936775;29;20040;-64
2024/03/07 02:34:28;;;;;;;21.88;9.40;;;;;;;11.58;42.65;102133.31;4937763;29;20642;-63
2024/03/07 02:36:53;;;;;;;20.13;9.40;;;;;;;11.57;42.57;102136.97;4936695;29;20031;-63
2024/03/07 02:39:18;;;;;;;16.70;7.43;;;;;;;11.56;43.23;102142.41;4936674;29;20051;-63
2024/03/07 02:41:44;;;;;;;25.92;11.85;;;;;;;11.53;43.01;102129.22;4920741;29;20055;-63
2024/03/07 02:44:09;;;;;;;29.63;11.48;;;;;;;11.50;42.47;102126.75;4936448;29;20043;-63
2024/03/07 02:46:34;;;;;;;22.83;10.52;;;;;;;11.50;42.85;102129.44;4936310;29;20114;-63
2024/03/07 02:49:00;;;;;;;24.65;10.57;;;;;;;11.45;43.21;102123.50;4937757;29;20094;-63
2024/03/07 02:51:26;;;;;;;19.38;7.10;;;;;;;11.43;42.74;102122.75;4936546;29;20046;-64
2024/03/07 02:53:52;;;;;;;14.57;7.03;;;;;;;11.42;42.44;102123.69;4937633;29;20031;-64
2024/03/07 02:56:17;;;;;;;14.18;7.45;;;;;;;11.38;42.96;102122.19;4937726;29;20504;-63
2024/03/07 02:58:42;;;;;;;20.05;8.30;;;;;;;11.33;42.28;102121.66;4920369;29;20468;-63
2024/03/07 03:01:08;;;;;;;17.20;8.10;;;;;;;11.30;42.89;102119.16;4920425;29;20044;-64
2024/03/07 03:03:33;;;;;;;22.45;10.02;;;;;;;11.26;43.17;102120.31;4936250;29;20039;-63
2024/03/07 03:06:02;;;;;;;23.50;10.35;;;;;;;11.25;43.31;102115.94;4936082;29;20046;-64
2024/03/07 03:08:30;;;;;;;29.75;12.27;;;;;;;11.23;43.24;102115.16;4936295;29;20042;-63
2024/03/07 03:10:56;;;;;;;25.98;11.85;;;;;;;11.25;43.28;102118.63;4937242;29;20031;-63
2024/03/07 03:13:23;;;;;;;27.00;12.45;;;;;;;11.21;42.99;102111.72;4937508;29;20118;-64
2024/03/07 03:15:48;;;;;;;26.48;12.07;;;;;;;11.23;43.09;102115.16;4936005;29;20036;-63
2024/03/07 03:18:13;;;;;;;27.88;11.70;;;;;;;11.22;43.29;102110.78;4936079;29;20046;-63
2024/03/07 03:20:39;;;;;;;28.67;11.38;;;;;;;11.21;42.43;102106.38;4935974;29;20032;-63
2024/03/07 03:23:05;;;;;;;35.97;11.77;;;;;;;11.20;43.16;102112.69;4935994;29;20042;-63
2024/03/07 03:25:34;;;;;;;28.20;12.38;;;;;;;11.16;42.86;102101.31;4935790;29;20103;-63
2024/03/07 03:28:03;;;;;;;36.78;13.35;;;;;;;11.17;43.17;102115.59;4920177;29;20082;-64
2024/03/07 03:30:29;;;;;;;35.75;14.73;;;;;;;11.16;43.29;102103.13;4919880;29;20411;-63
2024/03/07 03:32:55;;;;;;;36.10;14.55;;;;;;;11.13;43.17;102097.97;4919629;29;20046;-63
2024/03/07 03:35:20;;;;;;;32.17;13.82;;;;;;;11.10;43.49;102091.84;4935374;29;20043;-63
2024/03/07 03:37:45;;;;;;;33.72;13.60;;;;;;;11.11;42.75;102087.31;4919722;29;20048;-64
2024/03/07 03:40:14;;;;;;;29.55;12.30;;;;;;;11.16;43.21;102092.41;4935624;29;20412;-63
2024/03/07 03:42:41;;;;;;;30.17;12.70;;;;;;;11.15;42.91;102096.91;4936801;29;20131;-63
2024/03/07 03:45:07;;;;;;;25.20;10.95;;;;;;;11.13;43.25;102103.34;4934806;29;20040;-63
2024/03/07 03:47:36;;;;;;;35.60;14.27;;;;;;;11.09;42.94;102098.16;4935541;29;20094;-63
2024/03/07 03:50:05;;;;;;;28.15;11.65;;;;;;;11.04;43.36;102096.75;4936682;29;20501;-64
2024/03/07 03:52:31;;;;;;;27.65;11.80;;;;;;;11.04;43.06;102104.78;4935527;29;20043;-64
2024/03/07 03:54:58;;;;;;;35.20;12.85;;;;;;;10.97;43.41;102090.09;4935343;29;20050;-63
2024/03/07 03:57:24;;;;;;;25.17;12.98;;;;;;;10.98;42.92;102097.16;4935268;29;20048;-64
2024/03/07 03:59:49;;;;;;;29.25;10.65;;;;;;;11.00;43.55;102104.13;4936422;29;20102;-63
2024/03/07 04:02:16;;;;;;;34.70;13.00;;;;;;;10.98;43.26;102098.03;4935062;29;20036;-63
2024/03/07 04:04:41;;;;;;;28.77;10.95;;;;;;;10.99;43.10;102102.44;4935110;29;20047;-63
2024/03/07 04:07:07;;;;;;;27.05;11.73;;;;;;;10.97;43.50;102098.97;4936273;29;20420;-63
2024/03/07 04:09:32;;;;;;;24.92;9.60;;;;;;;10.94;43.00;102098.34;4935277;29;20131;-63
2024/03/07 04:11:59;;;;;;;26.67;11.15;;;;;;;10.91;42.67;102095.84;4935031;29;20036;-63
2024/03/07 04:14:25;;;;;;;27.88;11.65;;;;;;;10.90;43.31;102086.94;4936266;29;20051;-63
2024/03/07 04:16:50;;;;;;;32.60;11.77;;;;;;;10.86;42.79;102082.72;4934962;29;20036;-63
2024/03/07 04:19:17;;;;;;;24.65;11.50;;;;;;;10.86;42.84;102093.44;4936119;29;20090;-63
2024/03/07 04:21:43;;;;;;;29.83;11.00;;;;;;;10.86;43.13;102092.63;4936143;29;20140;-64
2024/03/07 04:24:09;;;;;;;22.42;9.63;;;;;;;10.84;43.03;102095.38;4934742;29;20496;-63
2024/03/07 04:26:34;;;;;;;20.23;9.68;;;;;;;10.79;43.01;102088.59;4936018;29;20069;-63
2024/03/07 04:28:59;;;;;;;27.67;9.90;;;;;;;10.78;43.12;102094.91;4934779;29;20035;-63
2024/03/07 04:31:25;;;;;;;21.80;9.73;;;;;;;10.73;43.15;102095.22;4918945;29;20041;-63
2024/03/07 04:33:50;;;;;;;19.55;9.43;;;;;;;10.70;43.25;102095.41;4918373;29;20039;-63
2024/03/07 04:36:16;;;;;;;27.25;10.98;;;;;;;10.69;42.72;102088.31;4934720;29;20035;-63
2024/03/07 04:38:45;;;;;;;30.35;11.18;;;;;;;10.71;43.26;102099.81;4934608;29;20042;-63
2024/03/07 04:41:11;;;;;;;35.85;12.25;;;;;;;10.70;43.32;102090.03;4935946;29;20046;-63
2024/03/07 04:43:37;;;;;;;37.17;12.85;;;;;;;10.69;43.41;102088.31;4934489;29;20044;-63
2024/03/07 04:46:02;;;;;;;33.25;12.55;;;;;;;10.69;42.99;102098.19;4935928;29;20060;-63
2024/03/07 04:48:28;;;;;;;24.30;10.73;;;;;;;10.67;43.01;102087.56;4935016;29;20510;-64
2024/03/07 04:50:53;;;;;;;23.65;10.93;;;;;;;10.66;42.90;102096.59;4934962;29;20052;-63
2024/03/07 04:53:18;;;;;;;24.83;11.02;;;;;;;10.63;43.46;102086.06;4918830;29;20411;-63
2024/03/07 04:55:44;;;;;;;30.20;12.50;;;;;;;10.63;43.23;102091.41;4919040;29;20038;-63
2024/03/07 04:58:09;;;;;;;28.67;12.40;;;;;;;10.64;43.25;102085.06;4934419;29;20032;-63
2024/03/07 05:00:34;;;;;;;28.27;11.18;;;;;;;10.55;43.10;102072.31;4934290;29;20040;-63
2024/03/07 05:03:00;;;;;;;26.52;11.45;;;;;;;10.60;42.67;102088.94;4918503;29;20551;-63
2024/03/07 05:05:26;;;;;;;22.00;9.75;;;;;;;10.62;43.16;102094.19;4935469;29;20087;-63
2024/03/07 05:07:52;;;;;;;33.08;12.43;;;;;;;10.62;43.64;102084.31;4935649;29;20035;-63
2024/03/07 05:10:17;;;;;;;35.05;13.63;;;;;;;10.62;43.19;102084.31;4934313;29;20420;-64
2024/03/07 05:12:43;;;;;;;26.35;11.10;;;;;;;10.64;43.12;102089.56;4934313;29;20067;-63
2024/03/07 05:15:09;;;;;;;27.75;12.55;;;;;;;10.58;43.17;102085.47;4935575;29;20404;-63
2024/03/07 05:17:37;;;;;;;31.38;11.38;;;;;;;10.59;43.54;102087.19;4935440;29;20492;-63
2024/03/07 05:20:09;;;;;;;33.75;11.68;;;;;;;10.56;43.33;102087.41;4934398;29;20050;-63
2024/03/07 05:22:35;;;;;;;31.63;12.15;;;;;;;10.53;43.69;102088.44;4934248;29;20500;-63
2024/03/07 05:25:00;;;;;;;31.83;12.77;;;;;;;10.56;42.95;102083.84;4935070;29;20126;-63
2024/03/07 05:27:27;;;;;;;23.95;10.48;;;;;;;10.50;43.43;102088.66;4934357;29;20381;-63
2024/03/07 05:29:52;;;;;;;25.13;10.40;;;;;;;10.49;43.42;102092.31;4934334;29;20415;-63
2024/03/07 05:32:27;;;;;;;26.38;11.48;;;;;;;10.46;42.85;102094.31;4934786;29;20039;-63
2024/03/07 05:34:53;;;;;;;29.75;10.85;;;;;;;10.43;43.63;102087.34;4934065;29;20052;-63
2024/03/07 05:37:21;;;;;;;24.17;9.98;;;;;;;10.40;43.16;102082.16;4934068;29;20566;-63
2024/03/07 05:39:50;;;;;;;28.88;10.10;;;;;;;10.37;43.38;102076.13;4934175;29;20574;-63
2024/03/07 05:42:16;;;;;;;31.45;12.77;;;;;;;10.39;43.20;102084.94;4935308;29;20031;-64
2024/03/07 05:44:42;;;;;;;30.45;12.60;;;;;;;10.37;43.19;102090.41;4934422;29;20028;-63
2024/03/07 05:47:07;;;;;;;37.00;13.07;;;;;;;10.34;43.03;102081.69;4935226;29;20566;-63
2024/03/07 05:49:33;;;;;;;34.88;13.90;;;;;;;10.34;43.44;102087.03;4918259;29;20051;-63
2024/03/07 05:51:58;;;;;;;35.42;12.85;;;;;;;10.32;43.35;102083.59;4933455;29;20452;-63
2024/03/07 05:54:24;;;;;;;35.80;13.57;;;;;;;10.33;43.68;102079.97;4933945;29;20039;-63
2024/03/07 05:56:50;;;;;;;32.17;13.55;;;;;;;10.31;43.61;102081.88;4933924;29;20031;-63
2024/03/07 05:59:16;;;;;;;33.50;12.45;;;;;;;10.33;43.00;102085.34;4933992;29;20028;-63
2024/03/07 06:01:42;;;;;;;28.15;11.93;;;;;;;10.30;43.50;102081.00;4918637;29;20095;-63
2024/03/07 06:04:10;;;;;;;26.95;10.98;;;;;;;10.27;42.76;102088.41;4935196;29;20471;-63
2024/03/07 06:06:36;;;;;;;27.50;11.05;;;;;;;10.27;43.48;102083.03;4918371;29;20408;-63
2024/03/07 06:09:07;;;;;;;27.17;11.80;;;;;;;10.22;43.67;102071.72;4938267;29;20043;-63
2024/03/07 06:11:36;;;;;;;31.70;11.98;;;;;;;10.25;43.13;102079.56;4937990;29;20577;-63
2024/03/07 06:14:03;;;;;;;30.33;12.70;;;;;;;10.27;43.21;102086.56;4937201;29;20031;-63
2024/03/07 06:16:32;;;;;;;37.63;12.93;;;;;;;10.26;42.92;102073.28;4937202;29;20027;-63
2024/03/07 06:19:01;;;;;;;29.35;12.55;;;;;;;10.31;43.83;102077.38;4937061;29;20024;-63
2024/03/07 06:21:27;;;;;;;30.05;12.90;;;;;;;10.37;43.06;102081.50;4937235;29;20027;-63
2024/03/07 06:23:59;;;;;;;36.28;12.85;;;;;;;10.38;42.86;102084.09;4937014;29;20032;-63
2024/03/07 06:26:37;;;;;;;36.10;14.63;;;;;;;10.46;42.60;102080.91;4921560;29;20039;-63
2024/03/07 06:29:04;;;;;;;40.63;12.52;;;;;;;10.52;43.24;102088.56;4922596;29;20487;-63
2024/03/07 06:31:30;;;;;;;42.08;16.40;;;;;;;10.58;43.64;102082.78;4938556;29;20032;-63
2024/03/07 06:33:56;;;;;;;40.50;15.52;;;;;;;10.67;43.92;102078.66;4936731;29;20035;-63
2024/03/07 06:36:21;;;;;;;35.13;14.77;;;;;;;10.73;43.92;102089.84;4936742;29;20055;-62
2024/03/07 06:38:47;;;;;;;35.85;14.43;;;;;;;10.81;43.61;102082.16;4936848;29;20032;-62
2024/03/07 06:41:13;;;;;;;45.63;16.83;;;;;;;10.88;43.28;102077.28;4936958;29;20032;-62
2024/03/07 06:43:38;;;;;;;38.50;14.23;;;;;;;11.00;44.13;102084.50;4920810;29;20491;-62
2024/03/07 06:46:04;;;;;;;43.38;16.13;;;;;;;11.11;43.45;102084.66;4936589;29;20046;-63
2024/03/07 06:48:29;;;;;;;39.97;15.98;;;;;;;11.21;43.92;102080.41;4937754;29;20380;-62
2024/03/07 06:50:55;;;;;;;45.90;17.08;;;;;;;11.29;43.75;102072.69;4936263;29;20056;-63
2024/03/07 06:53:25;;;;;;;38.45;15.23;;;;;;;11.42;44.36;102072.72;4937789;29;20031;-62
2024/03/07 06:55:53;;;;;;;39.15;14.13;;;;;;;11.54;43.58;102077.25;4921298;29;20043;-62
2024/03/07 06:58:19;;;;;;;40.53;16.48;;;;;;;11.64;44.04;102073.00;4936341;29;20032;-63
2024/03/07 07:00:45;;;;;;;46.42;16.45;;;;;;;11.77;44.08;102073.91;4936418;29;20040;-62
2024/03/07 07:03:12;;;;;;;41.67;17.45;;;;;;;11.84;43.63;102063.56;4936534;29;20120;-63
2024/03/07 07:05:40;;;;;;;32.08;15.75;;;;;;;11.99;44.39;102066.06;4920692;29;20027;-63
2024/03/07 07:08:06;;;;;;;44.25;17.85;;;;;;;12.10;44.04;102071.53;4937453;29;20039;-63
2024/03/07 07:10:31;;;;;;;42.75;15.77;;;;;;;12.20;43.61;102069.91;4937261;29;20036;-63
2024/03/07 07:12:57;;;;;;;42.33;16.15;;;;;;;12.34;43.80;102071.59;4937328;29;20082;-63
2024/03/07 07:15:22;;;;;;;49.45;16.33;;;;;;;12.43;44.59;102067.41;4920172;29;20123;-62
2024/03/07 07:17:52;;;;;;;39.33;16.20;;;;;;;12.56;44.62;102068.25;4920126;29;20038;-63
2024/03/07 07:20:18;;;;;;;44.20;16.52;;;;;;;12.69;43.45;102063.69;4934673;29;20123;-62
2024/03/07 07:22:47;;;;;;;42.13;16.70;;;;;;;12.81;43.33;102063.63;4936055;29;20074;-63
2024/03/07 07:25:13;;;;;;;41.72;17.15;;;;;;;12.94;44.17;102062.72;4935679;29;20059;-63
2024/03/07 07:27:50;;;;;;;40.85;17.90;;;;;;;13.05;43.63;102063.66;4935808;29;20051;-62
2024/03/07 07:30:23;;;;;;;37.85;16.90;;;;;;;13.21;43.68;102064.22;4935845;29;20040;-62
2024/03/07 07:32:49;;;;;;;41.30;16.58;;;;;;;13.35;44.90;102064.06;4920276;29;20036;-63
2024/03/07 07:35:15;;;;;;;42.13;16.92;;;;;;;13.50;44.54;102053.09;4936837;29;20040;-63
2024/03/07 07:37:42;;;;;;;44.85;16.90;;;;;;;13.67;43.15;102060.72;4935629;29;20036;-63
2024/03/07 07:40:08;;;;;;;35.47;15.07;;;;;;;13.81;43.02;102057.81;4935693;29;20035;-63
2024/03/07 07:42:38;;;;;;;33.05;15.38;;;;;;;13.90;44.05;102047.16;4919740;29;20028;-63
2024/03/07 07:45:10;;;;;;;31.77;15.90;;;;;;;14.11;44.65;102058.09;4900953;29;20135;-63
2024/03/07 07:47:40;;;;;;;46.22;17.73;;;;;;;14.27;43.20;102053.19;4916710;29;20048;-62
2024/03/07 07:50:13;;;;;;;40.17;15.45;;;;;;;14.48;43.11;102056.03;4916427;29;20086;-62
2024/03/07 07:52:58;;;;;;;31.83;16.02;;;;;;;14.70;43.84;102041.66;4918060;29;20039;-63
2024/03/07 07:55:28;;;;;;;36.88;15.63;;;;;;;14.89;44.36;102050.81;4916776;29;20183;-64
2024/03/07 07:57:55;;;;;;;36.13;16.38;;;;;;;15.07;43.67;102045.72;4900831;28;20032;-63
2024/03/07 08:00:25;;;;;;;38.33;15.60;;;;;;;15.26;43.92;102048.59;4900362;29;20408;-63
2024/03/07 08:02:55;;;;;;;41.13;18.00;;;;;;;15.43;44.08;102045.31;4916217;29;20028;-63
2024/03/07 08:05:24;;;;;;;36.30;15.32;;;;;;;15.58;42.36;102040.47;4916975;28;20056;-63
2024/03/07 08:07:52;;;;;;;34.65;16.58;;;;;;;15.74;43.36;102035.47;4916440;29;20044;-63
2024/03/07 08:10:25;;;;;;;32.42;14.82;;;;;;;15.91;41.96;102034.84;4900456;29;20036;-62
2024/03/07 08:12:51;;;;;;;30.38;14.43;;;;;;;16.06;42.22;102038.03;4900078;29;20560;-63
2024/03/07 08:15:17;;;;;;;35.35;14.98;;;;;;;16.19;42.78;102034.13;4915862;29;20123;-63
2024/03/07 08:17:43;;;;;;;32.92;15.48;;;;;;;16.36;42.90;102038.03;4916069;29;20083;-63
2024/03/07 08:20:13;;;;;;;32.60;14.40;;;;;;;16.48;42.52;102033.38;4917217;29;20493;-63
2024/03/07 08:22:40;;;;;;;28.13;14.55;;;;;;;16.65;41.89;102036.31;4900150;29;20036;-63
2024/03/07 08:25:09;;;;;;;31.85;15.20;;;;;;;16.83;41.81;102039.19;4900320;29;20037;-63
2024/03/07 08:27:38;;;;;;;35.42;15.13;;;;;;;16.97;41.69;102033.38;4916143;29;20040;-63
2024/03/07 08:30:08;;;;;;;31.23;14.10;;;;;;;17.14;41.36;102037.25;4915487;29;20028;-63
2024/03/07 08:32:36;;;;;;;32.50;14.88;;;;;;;17.35;41.31;102035.22;4917058;29;20044;-63
2024/03/07 08:35:11;;;;;;;29.10;15.20;;;;;;;17.46;41.68;102033.22;4916536;29;20040;-63
2024/03/07 08:37:38;;;;;;;27.00;13.57;;;;;;;17.57;41.48;102029.53;4915451;29;20083;-61
2024/03/07 08:40:04;;;;;;;28.08;14.95;;;;;;;17.53;42.24;102033.53;4900008;29;20091;-61
2024/03/07 08:42:32;;;;;;;28.00;14.07;;;;;;;17.72;41.31;102027.22;4916856;29;20032;-61
2024/03/07 08:44:58;;;;;;;26.20;14.23;;;;;;;17.85;41.39;102022.34;4916661;29;20389;-61
2024/03/07 08:47:23;;;;;;;26.67;13.15;;;;;;;17.90;41.04;102015.47;4915690;29;20512;-61
2024/03/07 08:49:48;;;;;;;28.17;14.00;;;;;;;18.11;40.48;102019.84;4916726;29;20036;-61
2024/03/07 08:52:14;;;;;;;29.63;14.48;;;;;;;18.23;40.98;102010.50;4915478;29;20055;-61
2024/03/07 08:54:39;;;;;;;36.33;14.40;;;;;;;18.41;40.43;102014.13;4899703;29;20155;-61
2024/03/07 08:57:06;;;;;;;28.35;15.23;;;;;;;18.60;39.72;102016.75;4916711;29;20032;-61
2024/03/07 08:59:33;;;;;;;33.25;14.55;;;;;;;18.75;39.66;102012.53;4899952;29;20052;-62
2024/03/07 09:02:01;;;;;;;33.78;14.75;;;;;;;18.86;40.35;102008.72;4916600;29;20032;-62
2024/03/07 09:04:28;;;;;;;31.05;14.38;;;;;;;18.96;39.97;102010.34;4916685;29;20508;-61
2024/03/07 09:06:54;;;;;;;31.88;14.40;;;;;;;19.08;40.06;102008.25;4915470;29;20048;-62
2024/03/07 09:09:20;;;;;;;30.05;14.93;;;;;;;19.12;39.30;102013.22;4915373;29;20116;-62
2024/03/07 09:11:45;;;;;;;33.78;14.50;;;;;;;19.23;39.62;102006.72;4915359;29;20040;-62
2024/03/07 09:14:10;;;;;;;28.95;14.40;;;;;;;19.33;39.36;102002.03;4916221;29;20036;-62
2024/03/07 09:16:36;;;;;;;31.90;15.05;;;;;;;19.29;39.95;102011.50;4916561;29;20497;-62
2024/03/07 09:19:02;;;;;;;33.42;15.35;;;;;;;19.36;38.95;102000.88;4917278;29;20064;-62
2024/03/07 09:21:28;;;;;;;30.83;15.57;;;;;;;19.34;39.68;101998.31;4915236;29;20051;-62
2024/03/07 09:23:53;;;;;;;28.08;13.05;;;;;;;19.46;39.32;102012.53;4915344;29;20048;-62
2024/03/07 09:26:19;;;;;;;30.23;15.02;;;;;;;19.54;38.71;101996.31;4899513;29;20091;-62
2024/03/07 09:28:46;;;;;;;27.63;14.98;;;;;;;19.75;39.32;101999.50;4915242;29;20129;-62
2024/03/07 09:31:13;;;;;;;28.73;15.27;;;;;;;19.91;38.99;101996.88;4915141;29;20036;-62
2024/03/07 09:33:39;;;;;;;36.25;15.77;;;;;;;20.05;38.68;101999.00;4914965;29;20043;-62
2024/03/07 09:36:06;;;;;;;32.22;15.65;;;;;;;20.15;38.13;101993.44;4915292;29;20036;-62
2024/03/07 09:38:32;;;;;;;24.15;14.20;;;;;;;20.18;38.51;101988.50;4916591;29;20068;-62
2024/03/07 09:40:57;;;;;;;31.48;14.63;;;;;;;20.38;37.94;101993.75;4915479;29;20055;-62
2024/03/07 09:43:24;;;;;;;32.33;14.65;;;;;;;20.87;37.29;101992.84;4918517;29;20044;-62
2024/03/07 09:45:49;;;;;;;29.25;14.35;;;;;;;21.80;36.58;101977.88;4902909;29;20044;-64
2024/03/07 09:48:15;;;;;;;27.27;13.65;;;;;;;23.33;33.94;101982.53;4918419;29;20040;-64
2024/03/07 09:50:40;;;;;;;23.67;13.35;;;;;;;22.94;35.03;101974.47;4919809;29;20036;-63
2024/03/07 09:53:08;;;;;;;24.13;14.02;;;;;;;22.64;35.38;101972.59;4902903;29;20036;-63
2024/03/07 09:55:33;;;;;;;22.77;12.68;;;;;;;22.49;35.83;101974.38;4918520;29;20032;-62
2024/03/07 09:58:00;;;;;;;24.63;13.38;;;;;;;22.55;35.16;101980.00;4919542;29;20032;-62
2024/03/07 10:00:27;;;;;;;22.17;11.77;;;;;;;22.20;35.39;101982.34;4919597;29;20043;-63
2024/03/07 10:03:02;;;;;;;25.60;13.63;;;;;;;22.29;35.76;101975.84;4918490;29;20032;-62
2024/03/07 10:05:28;;;;;;;24.40;14.00;;;;;;;22.19;35.86;101984.25;4918355;29;20119;-62
2024/03/07 10:07:53;;;;;;;24.17;12.57;;;;;;;22.20;35.29;101979.63;4919585;29;20048;-62
2024/03/07 10:10:19;;;;;;;27.38;13.07;;;;;;;22.18;34.71;101982.53;4919435;29;20509;-63
2024/03/07 10:12:45;;;;;;;24.60;13.02;;;;;;;22.37;34.80;101978.53;4902343;29;20032;-62
2024/03/07 10:15:12;;;;;;;26.70;12.88;;;;;;;22.70;34.59;101976.53;4918178;29;20032;-63
2024/03/07 10:17:39;;;;;;;24.88;11.82;;;;;;;23.05;33.79;101974.06;4919319;29;20548;-63
2024/03/07 10:20:09;;;;;;;23.55;12.48;;;;;;;23.25;33.87;101977.13;4918188;29;20036;-63
2024/03/07 10:22:36;;;;;;;22.48;11.43;;;;;;;23.38;33.50;101974.66;4919345;29;20036;-62
2024/03/07 10:25:03;;;;;;;21.98;12.18;;;;;;;23.41;33.52;101966.09;4917866;29;20065;-63
2024/03/07 10:27:28;;;;;;;22.95;12.18;;;;;;;23.64;32.98;101960.56;4919250;29;20084;-63
2024/03/07 10:29:54;;;;;;;25.23;13.07;;;;;;;23.66;33.18;101970.28;4919194;29;20028;-64
2024/03/07 10:32:20;;;;;;;24.92;12.30;;;;;;;23.67;33.29;101960.19;4918840;29;20549;-63
2024/03/07 10:34:48;;;;;;;22.00;11.57;;;;;;;23.83;32.86;101970.09;4917828;29;20068;-63
2024/03/07 10:37:16;;;;;;;20.35;11.95;;;;;;;24.05;32.32;101963.69;4917857;29;20421;-63
2024/03/07 10:39:44;;;;;;;22.90;12.15;;;;;;;24.08;32.33;101960.56;4902334;29;20518;-63
2024/03/07 10:42:15;;;;;;;24.13;12.35;;;;;;;23.35;33.30;101960.47;4917540;29;20123;-65
2024/03/07 10:44:47;;;;;;;21.60;12.13;;;;;;;23.74;32.38;101958.38;4917616;29;20455;-63
2024/03/07 10:47:19;;;;;;;25.45;11.82;;;;;;;24.05;32.20;101953.59;4917958;29;20032;-63
2024/03/07 10:50:14;;;;;;;20.63;11.75;;;;;;;23.62;32.66;101955.25;4917855;29;20043;-63
2024/03/07 10:52:45;;;;;;;24.13;12.85;;;;;;;24.26;31.58;101950.13;4918592;29;20041;-63
2024/03/07 10:55:32;;;;;;;24.90;13.07;;;;;;;24.53;31.20;101952.13;4917362;29;20063;-63
2024/03/07 10:58:35;;;;;;;22.60;13.40;;;;;;;24.92;31.02;101939.91;4918651;29;20040;-63
2024/03/07 11:01:03;;;;;;;19.77;12.68;;;;;;;25.12;31.47;101927.25;4918736;29;20136;-63
2024/03/07 11:03:30;;;;;;;18.40;12.55;;;;;;;25.35;30.82;101925.09;4917375;29;20040;-63
2024/03/07 11:05:55;;;;;;;19.15;11.00;;;;;;;25.06;31.32;101937.13;4917344;29;20039;-63
2024/03/07 11:08:23;;;;;;;17.63;11.30;;;;;;;24.52;31.86;101933.97;4918505;29;20115;-63